This is the latest recevied weather packets stored in our database for station/object BARLOW-WX. If no packets are shown the sender has not sent any weather packets the latest 10 day(s).
| Time | Temp. | Humidity | Pressure | Rain* | Wind** | Luminosity | Snow |
|---|---|---|---|---|---|---|---|
| 1777146379 | 16.11° C | 73% | 985.7 hPa | 0 mm | - | - | - |
| 1777145495 | 16.11° C | 73% | 985.7 hPa | 0 mm | - | - | - |
| 1777144580 | 15.56° C | 73% | 985.6 hPa | 0 mm | - | - | - |
| 1777143699 | 15.56° C | 73% | 985.6 hPa | 0 mm | - | - | - |
| 1777142778 | 15.56° C | 75% | 986.2 hPa | 0 mm | - | - | - |
| 1777141895 | 15.56° C | 76% | 986.5 hPa | 0 mm | - | - | - |
| 1777140978 | 14.44° C | 76% | 986.4 hPa | 0 mm | - | - | - |
| 1777140105 | 14.44° C | 76% | 986.4 hPa | 0 mm | - | - | - |
| 1777139178 | 14.44° C | 77% | 986.4 hPa | 0 mm | - | - | - |
| 1777138295 | 13.89° C | 79% | 985.9 hPa | 0 mm | - | - | - |
| 1777137379 | 13.89° C | 79% | 985.8 hPa | 0 mm | - | - | - |
| 1777136498 | 13.33° C | 79% | 985.8 hPa | 0 mm | - | - | - |
| 1777135579 | 13.33° C | 79% | 985.6 hPa | 0 mm | - | - | - |
| 1777134690 | 13.33° C | 82% | 985.8 hPa | 0 mm | - | - | - |
| 1777133779 | 12.22° C | 82% | 985.7 hPa | 0 mm | - | - | - |
| 1777132905 | 12.22° C | 82% | 985.7 hPa | 0 mm | - | - | - |
| 1777131979 | 12.22° C | 85% | 984.9 hPa | 0 mm | - | - | - |
| 1777131091 | 12.78° C | 83% | 985.1 hPa | 0 mm | - | - | - |
| 1777130179 | 12.22° C | 83% | 985.1 hPa | 0 mm | - | - | - |
| 1777129302 | 12.22° C | 83% | 985.1 hPa | 0 mm | - | - | - |
| 1777128378 | 11.67° C | 85% | 984.8 hPa | 0 mm | - | - | - |
| 1777127494 | 11.67° C | 83% | 985.4 hPa | 0 mm | - | - | - |
| 1777126578 | 11.11° C | 83% | 985.4 hPa | 0 mm | - | - | - |
| 1777125708 | 10.56° C | 83% | 985.4 hPa | 0 mm | - | - | - |
| 1777124778 | 10.56° C | 91% | 984.7 hPa | 0 mm | - | - | - |
* Rain latest hour (hover to see other rain measurements)
** Current wind speed in m/s (hover to see current wind gust speed)